createdAt,value
2018-07-06T00:02:02.486Z,99363.32
2018-07-06T00:06:17.222Z,99364.80
2018-07-06T00:10:33.006Z,99362.13
2018-07-06T00:14:47.729Z,99372.35
2018-07-06T00:19:04.457Z,99371.97
2018-07-06T00:23:20.466Z,99376.55
2018-07-06T00:27:37.261Z,99377.78
2018-07-06T00:31:51.925Z,99371.50
2018-07-06T00:36:07.721Z,99375.99
2018-07-06T00:40:23.436Z,99377.78
2018-07-06T00:44:39.357Z,99366.69
2018-07-06T00:48:56.955Z,99366.14
2018-07-06T00:53:13.738Z,99373.86
2018-07-06T00:57:28.455Z,99370.70
2018-07-06T01:01:43.307Z,99367.63
2018-07-06T01:05:58.971Z,99359.03
2018-07-06T01:10:13.724Z,99364.31
2018-07-06T01:14:30.380Z,99365.21
2018-07-06T01:18:45.218Z,99368.27
2018-07-06T01:22:59.954Z,99374.96
2018-07-06T01:27:15.812Z,99375.75
2018-07-06T01:31:30.782Z,99374.89
2018-07-06T01:35:45.449Z,99379.77
2018-07-06T01:40:00.289Z,99371.91
2018-07-06T01:44:15.937Z,99371.02
2018-07-06T01:48:31.768Z,99367.89
2018-07-06T01:52:47.546Z,99363.05
2018-07-06T01:57:02.049Z,99353.78
2018-07-06T02:01:16.629Z,99358.80
2018-07-06T02:05:35.180Z,99359.20
2018-07-06T02:09:52.014Z,99358.01
2018-07-06T02:14:06.674Z,99378.88
2018-07-06T02:18:23.399Z,99372.59
2018-07-06T02:22:38.090Z,99373.53
2018-07-06T02:26:54.268Z,99385.03
2018-07-06T02:31:08.982Z,99383.69
2018-07-06T02:35:23.753Z,99387.64
2018-07-06T02:39:38.486Z,99374.31
2018-07-06T02:43:53.348Z,99386.84
2018-07-06T02:48:10.243Z,99383.31
2018-07-06T02:52:25.964Z,99384.09
2018-07-06T02:56:40.687Z,99391.10
2018-07-06T03:00:55.333Z,99396.53
2018-07-06T03:05:13.427Z,99393.06
2018-07-06T03:09:28.093Z,99395.36
2018-07-06T03:13:42.901Z,99402.84
2018-07-06T03:17:57.476Z,99403.23
2018-07-06T03:22:14.198Z,99402.84
2018-07-06T03:26:28.842Z,99406.86
2018-07-06T03:30:43.598Z,99412.08
2018-07-06T03:34:59.309Z,99412.16
2018-07-06T03:39:13.928Z,99411.67
2018-07-06T03:43:28.659Z,99420.26
2018-07-06T03:47:43.241Z,99421.97
2018-07-06T03:51:57.987Z,99427.27
2018-07-06T03:56:12.678Z,99422.25
2018-07-06T04:00:28.300Z,99423.97
2018-07-06T04:04:42.937Z,99431.93
2018-07-06T04:08:57.616Z,99441.72
2018-07-06T04:13:13.781Z,99448.80
2018-07-06T04:17:28.324Z,99452.36
2018-07-06T04:21:48.356Z,99458.51
2018-07-06T04:26:03.132Z,99462.84
2018-07-06T04:30:17.825Z,99467.75
2018-07-06T04:34:32.480Z,99469.88
2018-07-06T04:38:47.145Z,99476.09
2018-07-06T04:43:01.856Z,99477.30
2018-07-06T04:47:16.589Z,99482.11
2018-07-06T04:51:31.239Z,99478.09
2018-07-06T04:55:45.930Z,99488.59
2018-07-06T05:00:00.642Z,99479.08
2018-07-06T05:04:15.371Z,99478.05
2018-07-06T05:08:30.189Z,99487.66
2018-07-06T05:12:44.750Z,99486.66
2018-07-06T05:16:59.520Z,99487.38
2018-07-06T05:21:14.177Z,99490.47
2018-07-06T05:25:29.193Z,99494.25
2018-07-06T05:29:43.969Z,99506.58
2018-07-06T05:33:58.720Z,99505.51
2018-07-06T05:38:13.569Z,99502.69
2018-07-06T05:42:28.241Z,99510.59
2018-07-06T05:46:42.996Z,99518.31
2018-07-06T05:50:57.682Z,99509.56
2018-07-06T06:00:01.033Z,99519.59
2018-07-06T09:39:18.167Z,99603.30
2018-07-06T09:43:21.483Z,99608.27
2018-07-06T09:47:25.339Z,99610.66
2018-07-06T09:51:28.822Z,99604.50
2018-07-06T09:55:32.255Z,99612.85
2018-07-06T10:10:32.275Z,99614.04
2018-07-06T10:14:35.711Z,99616.23
2018-07-06T10:18:40.285Z,99623.75
2018-07-06T10:22:43.833Z,99622.39
2018-07-06T10:26:48.282Z,99622.09
2018-07-06T10:32:04.164Z,99633.31
2018-07-06T10:36:07.629Z,99627.39
2018-07-06T10:40:11.057Z,99628.66
2018-07-06T10:44:14.445Z,99631.79
2018-07-06T10:48:17.937Z,99631.79
2018-07-06T10:52:21.337Z,99631.97
2018-07-06T10:56:24.738Z,99626.05
2018-07-06T11:00:28.098Z,99616.80
2018-07-06T11:04:31.481Z,99621.84
2018-07-06T11:08:34.885Z,99622.09
2018-07-06T11:12:38.279Z,99617.73
2018-07-06T11:16:41.689Z,99623.91
2018-07-06T11:20:45.093Z,99613.55
2018-07-06T11:24:48.537Z,99616.47
2018-07-06T11:28:51.908Z,99617.11
2018-07-06T11:32:55.305Z,99615.38
2018-07-06T11:36:58.742Z,99617.21
2018-07-06T14:21:22.073Z,99542.09
2018-07-06T14:25:25.587Z,99536.12
2018-07-06T14:29:29.373Z,99528.34
2018-07-06T14:33:32.864Z,99528.52
2018-07-06T14:37:36.390Z,99523.31
2018-07-06T14:41:39.822Z,99524.88
2018-07-06T14:45:43.221Z,99526.90
2018-07-06T14:49:46.633Z,99527.39
2018-07-06T14:53:50.061Z,99528.52
2018-07-06T14:57:53.480Z,99519.85
2018-07-06T15:01:56.911Z,99528.83
2018-07-06T15:06:00.320Z,99531.34
2018-07-06T15:10:03.707Z,99526.62
2018-07-06T15:14:07.153Z,99534.48
2018-07-06T15:18:10.690Z,99531.02
2018-07-06T15:22:14.075Z,99534.02
2018-07-06T15:26:17.505Z,99543.16
2018-07-06T15:30:20.925Z,99540.09
2018-07-06T15:34:24.377Z,99537.18
2018-07-06T15:38:27.818Z,99544.72
2018-07-06T15:42:31.269Z,99537.66
2018-07-06T15:46:34.714Z,99549.34
2018-07-06T15:50:38.311Z,99545.78
2018-07-06T15:54:41.736Z,99547.34
2018-07-06T15:58:45.189Z,99558.58
2018-07-06T16:02:49.619Z,99557.05
2018-07-06T16:06:53.190Z,99562.33
2018-07-06T16:10:56.713Z,99572.45
2018-07-06T16:15:00.169Z,99568.95
2018-07-06T16:19:04.734Z,99572.05
2018-07-06T16:23:09.316Z,99577.13
2018-07-06T16:27:13.813Z,99577.03
2018-07-06T16:31:17.381Z,99578.38
2018-07-06T16:35:20.949Z,99586.63
2018-07-06T16:39:24.448Z,99580.24
2018-07-06T16:43:27.946Z,99574.00
2018-07-06T16:47:31.728Z,99567.62
2018-07-06T16:51:35.260Z,99573.70
2018-07-06T16:55:38.956Z,99583.27
2018-07-06T16:59:42.419Z,99601.94
2018-07-06T17:03:45.873Z,99610.05
2018-07-06T17:07:49.332Z,99609.23
2018-07-06T17:11:52.841Z,99599.58
2018-07-06T17:15:56.449Z,99594.65
2018-07-06T17:20:01.670Z,99599.64
2018-07-06T17:24:05.133Z,99592.95
2018-07-06T17:32:46.384Z,99621.52
2018-07-06T17:36:49.943Z,99636.66
2018-07-06T17:40:53.337Z,99647.56
2018-07-06T17:44:56.813Z,99647.73
2018-07-06T17:49:00.806Z,99652.41
2018-07-06T17:53:05.558Z,99658.05
2018-07-06T17:57:08.960Z,99682.96
2018-07-06T18:01:12.531Z,99694.17
2018-07-06T18:05:15.995Z,99715.08
2018-07-06T18:09:19.531Z,99708.36
2018-07-06T18:13:23.016Z,99722.66
2018-07-06T18:17:26.662Z,99729.64
2018-07-06T18:21:30.181Z,99719.59
2018-07-06T18:25:33.780Z,99730.31
2018-07-06T18:29:37.544Z,99734.95
2018-07-06T18:33:41.040Z,99748.78
2018-07-06T18:37:44.530Z,99760.14
2018-07-06T18:41:48.038Z,99774.62
2018-07-06T18:45:51.560Z,99778.09
2018-07-06T18:49:54.990Z,99786.55
2018-07-06T18:53:58.424Z,99785.75
2018-07-06T18:58:01.874Z,99799.20
2018-07-06T19:02:05.411Z,99799.20
2018-07-06T19:06:08.908Z,99804.63
2018-07-06T19:10:12.481Z,99802.42
2018-07-06T19:14:16.330Z,99815.39
2018-07-06T19:22:22.448Z,99824.47
2018-07-06T19:26:25.973Z,99835.36
2018-07-06T19:30:29.492Z,99831.40
2018-07-06T19:34:33.015Z,99836.81
2018-07-06T19:38:36.516Z,99848.08
2018-07-06T19:42:39.955Z,99850.88
2018-07-06T19:46:43.747Z,99848.67
2018-07-06T19:50:48.440Z,99859.05
2018-07-06T19:54:51.915Z,99862.59
2018-07-06T19:58:55.419Z,99874.64
2018-07-06T20:02:58.855Z,99875.92
2018-07-06T20:07:05.902Z,99872.23
